sensor_id;sensor_type;location;lat;lon;timestamp;pressure;altitude;pressure_sealevel;temperature;humidity
50394;BME280;36308;46.312;25.288;2024-01-30T00:02:09;98346.94;;;-7.09;63.70
50394;BME280;36308;46.312;25.288;2024-01-30T00:04:35;98348.06;;;-7.13;63.27
50394;BME280;36308;46.312;25.288;2024-01-30T00:07:00;98358.31;;;-7.10;63.44
50394;BME280;36308;46.312;25.288;2024-01-30T00:09:26;98364.50;;;-7.11;63.16
50394;BME280;36308;46.312;25.288;2024-01-30T00:11:51;98325.00;;;-7.37;63.59
50394;BME280;36308;46.312;25.288;2024-01-30T00:14:17;98355.41;;;-7.20;63.61
50394;BME280;36308;46.312;25.288;2024-01-30T00:16:42;98365.75;;;-7.18;63.27
50394;BME280;36308;46.312;25.288;2024-01-30T00:19:08;98354.75;;;-7.23;63.60
50394;BME280;36308;46.312;25.288;2024-01-30T00:21:34;98359.97;;;-7.23;63.71
50394;BME280;36308;46.312;25.288;2024-01-30T00:23:59;98361.84;;;-7.25;63.36
50394;BME280;36308;46.312;25.288;2024-01-30T00:26:25;98363.78;;;-7.29;63.48
50394;BME280;36308;46.312;25.288;2024-01-30T00:28:50;98338.44;;;-7.43;63.64
50394;BME280;36308;46.312;25.288;2024-01-30T00:31:16;98353.75;;;-7.37;63.88
50394;BME280;36308;46.312;25.288;2024-01-30T00:33:41;98358.00;;;-7.34;63.46
50394;BME280;36308;46.312;25.288;2024-01-30T00:36:08;98356.28;;;-7.35;63.50
50394;BME280;36308;46.312;25.288;2024-01-30T00:38:34;98358.34;;;-7.40;63.78
50394;BME280;36308;46.312;25.288;2024-01-30T00:41:00;98355.25;;;-7.47;63.81
50394;BME280;36308;46.312;25.288;2024-01-30T00:43:27;98354.50;;;-7.49;63.69
50394;BME280;36308;46.312;25.288;2024-01-30T00:45:53;98362.22;;;-7.47;63.64
50394;BME280;36308;46.312;25.288;2024-01-30T00:48:19;98356.34;;;-7.51;63.49
50394;BME280;36308;46.312;25.288;2024-01-30T00:50:45;98366.81;;;-7.51;63.72
50394;BME280;36308;46.312;25.288;2024-01-30T00:53:10;98333.97;;;-7.71;63.75
50394;BME280;36308;46.312;25.288;2024-01-30T00:55:36;98353.56;;;-7.64;64.00
50394;BME280;36308;46.312;25.288;2024-01-30T00:58:02;98357.19;;;-7.66;63.94
50394;BME280;36308;46.312;25.288;2024-01-30T01:00:28;98355.28;;;-7.63;63.99
50394;BME280;36308;46.312;25.288;2024-01-30T01:02:57;98330.09;;;-7.80;63.96
50394;BME280;36308;46.312;25.288;2024-01-30T01:05:23;98366.53;;;-7.62;64.11
50394;BME280;36308;46.312;25.288;2024-01-30T01:07:49;98365.78;;;-7.64;63.90
50394;BME280;36308;46.312;25.288;2024-01-30T01:10:15;98358.03;;;-7.66;64.00
50394;BME280;36308;46.312;25.288;2024-01-30T01:12:41;98335.47;;;-7.83;63.80
50394;BME280;36308;46.312;25.288;2024-01-30T01:15:07;98359.25;;;-7.72;63.88
50394;BME280;36308;46.312;25.288;2024-01-30T01:17:37;98368.00;;;-7.73;63.60
50394;BME280;36308;46.312;25.288;2024-01-30T01:20:03;98366.47;;;-7.77;63.74
50394;BME280;36308;46.312;25.288;2024-01-30T01:22:30;98324.22;;;-7.99;63.97
50394;BME280;36308;46.312;25.288;2024-01-30T01:24:56;98344.25;;;-7.84;64.01
50394;BME280;36308;46.312;25.288;2024-01-30T01:27:21;98349.28;;;-7.81;63.72
50394;BME280;36308;46.312;25.288;2024-01-30T01:29:47;98345.84;;;-7.81;63.97
50394;BME280;36308;46.312;25.288;2024-01-30T01:32:12;98344.25;;;-7.84;63.55
50394;BME280;36308;46.312;25.288;2024-01-30T01:34:38;98341.16;;;-7.90;64.27
50394;BME280;36308;46.312;25.288;2024-01-30T01:37:03;98327.75;;;-8.00;64.16
50394;BME280;36308;46.312;25.288;2024-01-30T01:39:29;98355.03;;;-7.90;63.70
50394;BME280;36308;46.312;25.288;2024-01-30T01:44:38;98292.72;;;-8.28;63.87
50394;BME280;36308;46.312;25.288;2024-01-30T01:47:04;98352.84;;;-7.98;63.83
50394;BME280;36308;46.312;25.288;2024-01-30T01:49:30;98346.78;;;-7.98;63.75
50394;BME280;36308;46.312;25.288;2024-01-30T01:51:55;98342.47;;;-7.99;63.79
50394;BME280;36308;46.312;25.288;2024-01-30T01:54:22;98331.28;;;-8.01;64.03
50394;BME280;36308;46.312;25.288;2024-01-30T01:56:49;98334.09;;;-8.04;63.91
50394;BME280;36308;46.312;25.288;2024-01-30T01:59:15;98332.50;;;-8.07;64.18
50394;BME280;36308;46.312;25.288;2024-01-30T02:01:41;98329.19;;;-8.10;63.87
50394;BME280;36308;46.312;25.288;2024-01-30T02:04:07;98341.16;;;-8.06;64.04
50394;BME280;36308;46.312;25.288;2024-01-30T02:06:34;98340.41;;;-8.08;64.46
50394;BME280;36308;46.312;25.288;2024-01-30T02:09:00;98337.94;;;-8.12;63.92
50394;BME280;36308;46.312;25.288;2024-01-30T02:11:26;98343.09;;;-8.10;64.19
50394;BME280;36308;46.312;25.288;2024-01-30T02:13:52;98332.91;;;-8.15;64.05
50394;BME280;36308;46.312;25.288;2024-01-30T02:16:17;98333.81;;;-8.16;64.36
50394;BME280;36308;46.312;25.288;2024-01-30T02:18:43;98310.41;;;-8.33;64.15
50394;BME280;36308;46.312;25.288;2024-01-30T02:21:12;98308.91;;;-8.37;63.77
50394;BME280;36308;46.312;25.288;2024-01-30T02:23:39;98339.28;;;-8.20;63.98
50394;BME280;36308;46.312;25.288;2024-01-30T02:26:06;98333.31;;;-8.22;63.79
50394;BME280;36308;46.312;25.288;2024-01-30T02:28:31;98311.50;;;-8.37;64.04
50394;BME280;36308;46.312;25.288;2024-01-30T02:30:57;98339.69;;;-8.28;64.02
50394;BME280;36308;46.312;25.288;2024-01-30T02:33:22;98299.50;;;-8.56;64.35
50394;BME280;36308;46.312;25.288;2024-01-30T02:35:48;98347.63;;;-8.29;63.92
50394;BME280;36308;46.312;25.288;2024-01-30T02:38:15;98330.72;;;-8.38;64.14
50394;BME280;36308;46.312;25.288;2024-01-30T02:40:41;98329.97;;;-8.40;64.13
50394;BME280;36308;46.312;25.288;2024-01-30T02:43:06;98316.50;;;-8.48;63.82
50394;BME280;36308;46.312;25.288;2024-01-30T02:45:32;98342.06;;;-8.39;64.10
50394;BME280;36308;46.312;25.288;2024-01-30T02:47:57;98333.50;;;-8.41;64.09
50394;BME280;36308;46.312;25.288;2024-01-30T02:50:23;98329.31;;;-8.44;64.27
50394;BME280;36308;46.312;25.288;2024-01-30T02:52:48;98321.72;;;-8.48;63.76
50394;BME280;36308;46.312;25.288;2024-01-30T02:55:14;98300.44;;;-8.57;64.10
50394;BME280;36308;46.312;25.288;2024-01-30T02:57:43;98317.50;;;-8.51;63.96
50394;BME280;36308;46.312;25.288;2024-01-30T03:00:09;98335.88;;;-8.52;64.35
50394;BME280;36308;46.312;25.288;2024-01-30T03:02:35;98337.19;;;-8.45;64.15
50394;BME280;36308;46.312;25.288;2024-01-30T03:05:01;98334.00;;;-8.50;64.60
50394;BME280;36308;46.312;25.288;2024-01-30T03:07:26;98325.91;;;-8.62;64.34
50394;BME280;36308;46.312;25.288;2024-01-30T03:09:52;98349.56;;;-8.49;63.92
50394;BME280;36308;46.312;25.288;2024-01-30T03:12:18;98341.06;;;-8.52;64.17
50394;BME280;36308;46.312;25.288;2024-01-30T03:14:43;98345.34;;;-8.51;63.91
50394;BME280;36308;46.312;25.288;2024-01-30T03:17:09;98331.19;;;-8.63;63.90
50394;BME280;36308;46.312;25.288;2024-01-30T03:19:34;98338.19;;;-8.64;64.13
50394;BME280;36308;46.312;25.288;2024-01-30T03:22:00;98350.13;;;-8.60;64.13
50394;BME280;36308;46.312;25.288;2024-01-30T03:24:26;98350.31;;;-8.63;64.25
50394;BME280;36308;46.312;25.288;2024-01-30T03:26:51;98329.09;;;-8.72;64.27
50394;BME280;36308;46.312;25.288;2024-01-30T03:29:17;98348.78;;;-8.67;63.86
50394;BME280;36308;46.312;25.288;2024-01-30T03:31:42;98336.97;;;-8.74;63.56
50394;BME280;36308;46.312;25.288;2024-01-30T03:34:08;98345.41;;;-8.69;64.08
50394;BME280;36308;46.312;25.288;2024-01-30T03:36:33;98338.81;;;-8.76;64.38
50394;BME280;36308;46.312;25.288;2024-01-30T03:39:00;98330.25;;;-8.78;64.19
50394;BME280;36308;46.312;25.288;2024-01-30T03:41:26;98345.75;;;-8.75;64.05
50394;BME280;36308;46.312;25.288;2024-01-30T03:43:51;98340.66;;;-8.78;64.16
50394;BME280;36308;46.312;25.288;2024-01-30T03:46:17;98336.47;;;-8.81;64.32
50394;BME280;36308;46.312;25.288;2024-01-30T03:48:42;98322.28;;;-8.92;64.14
50394;BME280;36308;46.312;25.288;2024-01-30T03:51:08;98323.91;;;-8.90;64.30
50394;BME280;36308;46.312;25.288;2024-01-30T03:53:34;98331.63;;;-8.88;64.11
50394;BME280;36308;46.312;25.288;2024-01-30T03:56:00;98329.34;;;-8.95;64.21
50394;BME280;36308;46.312;25.288;2024-01-30T03:58:26;98323.47;;;-8.98;64.26
50394;BME280;36308;46.312;25.288;2024-01-30T04:00:51;98325.16;;;-8.97;64.15
50394;BME280;36308;46.312;25.288;2024-01-30T04:03:17;98316.75;;;-9.02;64.17
50394;BME280;36308;46.312;25.288;2024-01-30T04:05:43;98342.38;;;-8.95;64.53
50394;BME280;36308;46.312;25.288;2024-01-30T04:08:09;98328.13;;;-9.05;64.16
50394;BME280;36308;46.312;25.288;2024-01-30T04:10:34;98343.31;;;-8.96;64.56
50394;BME280;36308;46.312;25.288;2024-01-30T04:13:00;98332.38;;;-9.02;64.00
50394;BME280;36308;46.312;25.288;2024-01-30T04:15:26;98331.81;;;-9.09;64.53
50394;BME280;36308;46.312;25.288;2024-01-30T04:17:52;98331.81;;;-9.09;64.42
50394;BME280;36308;46.312;25.288;2024-01-30T04:20:17;98339.63;;;-9.09;64.36
50394;BME280;36308;46.312;25.288;2024-01-30T04:22:44;98338.97;;;-9.12;64.55
50394;BME280;36308;46.312;25.288;2024-01-30T04:25:10;98339.63;;;-9.09;64.66
50394;BME280;36308;46.312;25.288;2024-01-30T04:27:35;98349.31;;;-9.11;64.50
50394;BME280;36308;46.312;25.288;2024-01-30T04:30:01;98359.59;;;-9.08;64.59
50394;BME280;36308;46.312;25.288;2024-01-30T04:32:26;98356.28;;;-9.11;64.33
50394;BME280;36308;46.312;25.288;2024-01-30T04:34:52;98358.88;;;-9.11;64.38
50394;BME280;36308;46.312;25.288;2024-01-30T04:37:18;98364.94;;;-9.11;64.05
50394;BME280;36308;46.312;25.288;2024-01-30T04:39:43;98346.28;;;-9.19;64.33
50394;BME280;36308;46.312;25.288;2024-01-30T04:42:09;98360.81;;;-9.15;64.27
50394;BME280;36308;46.312;25.288;2024-01-30T04:44:34;98351.47;;;-9.19;64.32
50394;BME280;36308;46.312;25.288;2024-01-30T04:47:00;98356.06;;;-9.24;64.01
50394;BME280;36308;46.312;25.288;2024-01-30T04:49:27;98346.59;;;-9.25;64.18
50394;BME280;36308;46.312;25.288;2024-01-30T04:51:53;98351.03;;;-9.27;64.02
50394;BME280;36308;46.312;25.288;2024-01-30T04:54:19;98361.34;;;-9.26;64.05
50394;BME280;36308;46.312;25.288;2024-01-30T04:56:44;98347.72;;;-9.31;64.22
50394;BME280;36308;46.312;25.288;2024-01-30T04:59:10;98353.63;;;-9.27;64.10
50394;BME280;36308;46.312;25.288;2024-01-30T05:01:35;98360.69;;;-9.29;64.33
50394;BME280;36308;46.312;25.288;2024-01-30T05:04:01;98357.13;;;-9.28;63.96
50394;BME280;36308;46.312;25.288;2024-01-30T05:06:27;98330.03;;;-9.42;63.99
50394;BME280;36308;46.312;25.288;2024-01-30T05:08:53;98338.75;;;-9.43;64.23
50394;BME280;36308;46.312;25.288;2024-01-30T05:11:21;98351.53;;;-9.38;64.34
50394;BME280;36308;46.312;25.288;2024-01-30T05:13:47;98347.09;;;-9.36;64.16
50394;BME280;36308;46.312;25.288;2024-01-30T05:16:13;98358.38;;;-9.36;64.39
50394;BME280;36308;46.312;25.288;2024-01-30T05:18:38;98352.41;;;-9.38;64.07
50394;BME280;36308;46.312;25.288;2024-01-30T05:21:05;98345.88;;;-9.46;64.29
50394;BME280;36308;46.312;25.288;2024-01-30T05:23:30;98336.16;;;-9.60;64.30
50394;BME280;36308;46.312;25.288;2024-01-30T05:25:56;98355.59;;;-9.50;64.41
50394;BME280;36308;46.312;25.288;2024-01-30T05:28:21;98361.28;;;-9.42;64.65
50394;BME280;36308;46.312;25.288;2024-01-30T05:30:47;98370.94;;;-9.44;64.24
50394;BME280;36308;46.312;25.288;2024-01-30T05:33:12;98359.81;;;-9.47;64.29
50394;BME280;36308;46.312;25.288;2024-01-30T05:35:38;98351.16;;;-9.48;64.39
50394;BME280;36308;46.312;25.288;2024-01-30T05:38:04;98370.16;;;-9.46;64.33
50394;BME280;36308;46.312;25.288;2024-01-30T05:40:30;98362.50;;;-9.49;64.44
50394;BME280;36308;46.312;25.288;2024-01-30T05:42:56;98372.91;;;-9.49;64.05
50394;BME280;36308;46.312;25.288;2024-01-30T05:45:24;98366.22;;;-9.55;64.30
50394;BME280;36308;46.312;25.288;2024-01-30T05:47:50;98321.56;;;-9.82;64.39
50394;BME280;36308;46.312;25.288;2024-01-30T05:50:15;98358.03;;;-9.64;64.33
50394;BME280;36308;46.312;25.288;2024-01-30T05:52:40;98354.97;;;-9.72;64.48
50394;BME280;36308;46.312;25.288;2024-01-30T05:55:06;98356.28;;;-9.64;64.30
50394;BME280;36308;46.312;25.288;2024-01-30T05:57:32;98379.47;;;-9.59;64.48
50394;BME280;36308;46.312;25.288;2024-01-30T05:59:58;98387.06;;;-9.55;64.71
50394;BME280;36308;46.312;25.288;2024-01-30T06:02:23;98379.47;;;-9.59;64.54
50394;BME280;36308;46.312;25.288;2024-01-30T06:04:49;98374.56;;;-9.65;64.44
50394;BME280;36308;46.312;25.288;2024-01-30T06:07:14;98380.66;;;-9.65;64.52
50394;BME280;36308;46.312;25.288;2024-01-30T06:09:40;98387.47;;;-9.62;64.44
50394;BME280;36308;46.312;25.288;2024-01-30T06:12:06;98393.34;;;-9.59;64.86
50394;BME280;36308;46.312;25.288;2024-01-30T06:14:32;98379.94;;;-9.68;64.36
50394;BME280;36308;46.312;25.288;2024-01-30T06:16:58;98388.34;;;-9.63;64.51
50394;BME280;36308;46.312;25.288;2024-01-30T06:19:24;98399.47;;;-9.60;64.86
50394;BME280;36308;46.312;25.288;2024-01-30T06:21:51;98400.19;;;-9.56;65.01
50394;BME280;36308;46.312;25.288;2024-01-30T06:24:16;98399.19;;;-9.53;65.01
50394;BME280;36308;46.312;25.288;2024-01-30T06:26:42;98386.53;;;-9.61;64.73
50394;BME280;36308;46.312;25.288;2024-01-30T06:29:08;98389.91;;;-9.59;64.81
50394;BME280;36308;46.312;25.288;2024-01-30T06:31:39;98390.72;;;-9.59;64.87
50394;BME280;36308;46.312;25.288;2024-01-30T06:34:05;98409.53;;;-9.52;65.25
50394;BME280;36308;46.312;25.288;2024-01-30T06:36:30;98385.47;;;-9.57;65.27
50394;BME280;36308;46.312;25.288;2024-01-30T06:38:56;98399.03;;;-9.50;65.05
50394;BME280;36308;46.312;25.288;2024-01-30T06:41:21;98403.25;;;-9.48;65.29
50394;BME280;36308;46.312;25.288;2024-01-30T06:43:48;98402.19;;;-9.44;65.52
50394;BME280;36308;46.312;25.288;2024-01-30T06:46:13;98399.59;;;-9.44;65.35
50394;BME280;36308;46.312;25.288;2024-01-30T06:48:39;98412.78;;;-9.29;65.49
50394;BME280;36308;46.312;25.288;2024-01-30T06:51:06;98411.63;;;-9.24;66.08
50394;BME280;36308;46.312;25.288;2024-01-30T06:53:31;98412.16;;;-9.17;65.79
50394;BME280;36308;46.312;25.288;2024-01-30T06:55:57;98407.81;;;-9.17;65.99
50394;BME280;36308;46.312;25.288;2024-01-30T06:58:22;98399.59;;;-9.09;66.12
50394;BME280;36308;46.312;25.288;2024-01-30T07:00:48;98418.16;;;-8.98;66.14
50394;BME280;36308;46.312;25.288;2024-01-30T07:03:14;98420.22;;;-8.87;65.90
50394;BME280;36308;46.312;25.288;2024-01-30T07:05:39;98403.09;;;-8.92;66.08
50394;BME280;36308;46.312;25.288;2024-01-30T07:08:05;98415.22;;;-8.74;66.10
50394;BME280;36308;46.312;25.288;2024-01-30T07:10:30;98393.00;;;-8.81;65.89
50394;BME280;36308;46.312;25.288;2024-01-30T07:12:56;98408.53;;;-8.62;66.08
50394;BME280;36308;46.312;25.288;2024-01-30T07:15:22;98411.41;;;-8.51;66.46
50394;BME280;36308;46.312;25.288;2024-01-30T07:17:47;98411.94;;;-8.44;66.04
50394;BME280;36308;46.312;25.288;2024-01-30T07:20:13;98406.28;;;-8.37;66.05
50394;BME280;36308;46.312;25.288;2024-01-30T07:22:39;98406.78;;;-8.30;66.25
50394;BME280;36308;46.312;25.288;2024-01-30T07:25:05;98386.00;;;-8.31;66.45
50394;BME280;36308;46.312;25.288;2024-01-30T07:27:32;98410.81;;;-8.07;66.23
50394;BME280;36308;46.312;25.288;2024-01-30T07:29:58;98405.75;;;-7.94;66.39
50394;BME280;36308;46.312;25.288;2024-01-30T07:32:23;98389.91;;;-7.91;66.13
50394;BME280;36308;46.312;25.288;2024-01-30T07:34:49;98411.47;;;-7.72;66.19
50394;BME280;36308;46.312;25.288;2024-01-30T07:37:14;98412.66;;;-7.61;65.77
50394;BME280;36308;46.312;25.288;2024-01-30T07:39:41;98410.13;;;-7.47;65.74
50394;BME280;36308;46.312;25.288;2024-01-30T07:42:08;98409.59;;;-7.38;65.67
50394;BME280;36308;46.312;25.288;2024-01-30T07:44:34;98407.03;;;-7.23;65.89
50394;BME280;36308;46.312;25.288;2024-01-30T07:46:59;98397.88;;;-7.16;65.47
50394;BME280;36308;46.312;25.288;2024-01-30T07:49:25;98414.38;;;-7.00;65.72
50394;BME280;36308;46.312;25.288;2024-01-30T07:51:50;98401.69;;;-6.92;65.39
50394;BME280;36308;46.312;25.288;2024-01-30T07:54:16;98399.84;;;-6.75;65.64
50394;BME280;36308;46.312;25.288;2024-01-30T07:56:43;98401.94;;;-6.66;65.42
50394;BME280;36308;46.312;25.288;2024-01-30T07:59:11;98387.75;;;-6.62;65.21
50394;BME280;36308;46.312;25.288;2024-01-30T08:01:37;98399.25;;;-6.36;65.29
50394;BME280;36308;46.312;25.288;2024-01-30T08:04:03;98384.00;;;-6.29;65.05
50394;BME280;36308;46.312;25.288;2024-01-30T08:06:29;98395.47;;;-6.03;65.00
50394;BME280;36308;46.312;25.288;2024-01-30T08:08:54;98388.41;;;-5.88;65.12
50394;BME280;36308;46.312;25.288;2024-01-30T08:11:21;98397.50;;;-5.66;64.57
50394;BME280;36308;46.312;25.288;2024-01-30T08:13:54;98390.06;;;-5.45;64.89
50394;BME280;36308;46.312;25.288;2024-01-30T08:16:20;98384.16;;;-5.22;64.34
50394;BME280;36308;46.312;25.288;2024-01-30T08:18:46;98388.28;;;-5.05;64.30
50394;BME280;36308;46.312;25.288;2024-01-30T08:21:11;98389.78;;;-4.75;64.31
50394;BME280;36308;46.312;25.288;2024-01-30T08:23:40;98385.19;;;-4.59;63.90
50394;BME280;36308;46.312;25.288;2024-01-30T08:26:05;98380.16;;;-4.36;63.61
50394;BME280;36308;46.312;25.288;2024-01-30T08:28:31;98394.84;;;-4.08;62.71
50394;BME280;36308;46.312;25.288;2024-01-30T08:30:56;98390.59;;;-3.85;62.21
50394;BME280;36308;46.312;25.288;2024-01-30T08:33:22;98399.78;;;-3.67;61.47
50394;BME280;36308;46.312;25.288;2024-01-30T08:35:48;98397.00;;;-3.52;60.93
50394;BME280;36308;46.312;25.288;2024-01-30T08:38:13;98398.78;;;-3.29;61.04
50394;BME280;36308;46.312;25.288;2024-01-30T08:40:39;98395.53;;;-3.08;60.89
50394;BME280;36308;46.312;25.288;2024-01-30T08:43:04;98385.75;;;-2.95;60.70
50394;BME280;36308;46.312;25.288;2024-01-30T08:45:30;98402.88;;;-2.65;60.48
50394;BME280;36308;46.312;25.288;2024-01-30T08:47:56;98404.56;;;-2.41;60.23
50394;BME280;36308;46.312;25.288;2024-01-30T08:50:22;98388.44;;;-2.26;59.98
50394;BME280;36308;46.312;25.288;2024-01-30T08:52:47;98387.34;;;-2.00;59.87
50394;BME280;36308;46.312;25.288;2024-01-30T08:55:13;98385.97;;;-1.72;59.38
50394;BME280;36308;46.312;25.288;2024-01-30T08:57:38;98394.56;;;-1.48;59.13
50394;BME280;36308;46.312;25.288;2024-01-30T09:00:04;98371.16;;;-1.30;59.25
50394;BME280;36308;46.312;25.288;2024-01-30T09:02:32;98384.72;;;-1.02;58.48
50394;BME280;36308;46.312;25.288;2024-01-30T09:04:58;98387.00;;;-0.76;57.81
50394;BME280;36308;46.312;25.288;2024-01-30T09:07:23;98375.59;;;-0.56;57.34
50394;BME280;36308;46.312;25.288;2024-01-30T09:09:49;98378.06;;;-0.33;57.75
50394;BME280;36308;46.312;25.288;2024-01-30T09:12:14;98356.03;;;-0.23;56.78
50394;BME280;36308;46.312;25.288;2024-01-30T09:14:40;98370.31;;;0.06;56.71
50394;BME280;36308;46.312;25.288;2024-01-30T09:17:06;98369.53;;;0.25;55.99
50394;BME280;36308;46.312;25.288;2024-01-30T09:19:32;98372.38;;;0.43;55.45
50394;BME280;36308;46.312;25.288;2024-01-30T09:21:57;98368.81;;;0.63;55.43
50394;BME280;36308;46.312;25.288;2024-01-30T09:24:23;98361.56;;;0.75;54.74
50394;BME280;36308;46.312;25.288;2024-01-30T09:26:48;98354.06;;;0.90;54.39
50394;BME280;36308;46.312;25.288;2024-01-30T09:29:14;98354.72;;;1.11;54.18
50394;BME280;36308;46.312;25.288;2024-01-30T09:31:43;98364.91;;;1.35;53.56
50394;BME280;36308;46.312;25.288;2024-01-30T09:34:09;98354.69;;;1.50;53.92
50394;BME280;36308;46.312;25.288;2024-01-30T09:36:34;98357.81;;;1.73;53.97
50394;BME280;36308;46.312;25.288;2024-01-30T09:39:00;98351.91;;;1.89;53.47
50394;BME280;36308;46.312;25.288;2024-01-30T09:41:27;98347.50;;;2.08;53.50
50394;BME280;36308;46.312;25.288;2024-01-30T09:43:54;98330.00;;;2.15;52.94
50394;BME280;36308;46.312;25.288;2024-01-30T09:46:23;98351.06;;;2.44;52.75
50394;BME280;36308;46.312;25.288;2024-01-30T09:48:53;98351.41;;;2.59;52.42
50394;BME280;36308;46.312;25.288;2024-01-30T09:51:20;98328.34;;;2.59;51.33
50394;BME280;36308;46.312;25.288;2024-01-30T09:53:47;98343.53;;;2.85;51.35
50394;BME280;36308;46.312;25.288;2024-01-30T09:56:14;98343.13;;;2.98;50.99
50394;BME280;36308;46.312;25.288;2024-01-30T09:58:39;98336.28;;;3.13;50.95
50394;BME280;36308;46.312;25.288;2024-01-30T10:01:05;98330.06;;;3.22;50.83
50394;BME280;36308;46.312;25.288;2024-01-30T10:03:31;98312.34;;;3.31;49.58
50394;BME280;36308;46.312;25.288;2024-01-30T10:05:57;98343.25;;;3.58;49.25
50394;BME280;36308;46.312;25.288;2024-01-30T10:08:23;98325.69;;;3.66;49.00
50394;BME280;36308;46.312;25.288;2024-01-30T10:10:49;98326.78;;;3.81;48.65
50394;BME280;36308;46.312;25.288;2024-01-30T10:13:15;98328.84;;;3.95;48.23
50394;BME280;36308;46.312;25.288;2024-01-30T10:15:41;98315.19;;;3.98;48.27
50394;BME280;36308;46.312;25.288;2024-01-30T10:18:08;98317.44;;;4.11;48.18
50394;BME280;36308;46.312;25.288;2024-01-30T10:20:35;98314.44;;;4.14;47.99
50394;BME280;36308;46.312;25.288;2024-01-30T10:23:01;98313.16;;;4.27;48.22
50394;BME280;36308;46.312;25.288;2024-01-30T10:25:26;98305.88;;;4.37;47.97
50394;BME280;36308;46.312;25.288;2024-01-30T10:27:55;98310.88;;;4.48;47.48
50394;BME280;36308;46.312;25.288;2024-01-30T10:30:21;98288.06;;;4.45;46.19
50394;BME280;36308;46.312;25.288;2024-01-30T10:32:47;98298.25;;;4.58;46.67
50394;BME280;36308;46.312;25.288;2024-01-30T10:35:13;98288.78;;;4.64;46.95
50394;BME280;36308;46.312;25.288;2024-01-30T10:37:39;98300.28;;;4.81;46.51
50394;BME280;36308;46.312;25.288;2024-01-30T10:40:05;98296.97;;;4.95;46.72
50394;BME280;36308;46.312;25.288;2024-01-30T10:42:36;98303.63;;;5.07;46.17
50394;BME280;36308;46.312;25.288;2024-01-30T10:45:09;98304.47;;;5.16;46.02
50394;BME280;36308;46.312;25.288;2024-01-30T10:47:40;98294.28;;;5.28;45.73
50394;BME280;36308;46.312;25.288;2024-01-30T10:50:07;98280.78;;;5.38;45.83
50394;BME280;36308;46.312;25.288;2024-01-30T10:52:33;98286.41;;;5.51;45.96
50394;BME280;36308;46.312;25.288;2024-01-30T10:54:59;98296.06;;;5.69;45.19
50394;BME280;36308;46.312;25.288;2024-01-30T10:57:26;98277.00;;;5.80;45.69
50394;BME280;36308;46.312;25.288;2024-01-30T10:59:59;98269.25;;;5.93;45.16
50394;BME280;36308;46.312;25.288;2024-01-30T11:02:26;98276.72;;;6.14;45.46
50394;BME280;36308;46.312;25.288;2024-01-30T11:04:57;98259.66;;;6.23;44.97
50394;BME280;36308;46.312;25.288;2024-01-30T11:07:29;98271.91;;;6.41;44.47
50394;BME280;36308;46.312;25.288;2024-01-30T11:12:26;98269.44;;;6.62;43.26
50394;BME280;36308;46.312;25.288;2024-01-30T11:15:09;98260.50;;;6.70;42.98
50394;BME280;36308;46.312;25.288;2024-01-30T11:17:51;98268.13;;;6.81;43.12
50394;BME280;36308;46.312;25.288;2024-01-30T11:20:29;98257.66;;;6.95;43.29
50394;BME280;36308;46.312;25.288;2024-01-30T11:22:59;98256.22;;;7.07;42.98
50394;BME280;36308;46.312;25.288;2024-01-30T11:25:25;98253.94;;;7.19;43.24
50394;BME280;36308;46.312;25.288;2024-01-30T11:27:55;98252.03;;;7.27;42.32
50394;BME280;36308;46.312;25.288;2024-01-30T11:33:05;98251.88;;;7.44;42.43
50394;BME280;36308;46.312;25.288;2024-01-30T11:35:32;98231.84;;;7.40;42.09
50394;BME280;36308;46.312;25.288;2024-01-30T11:37:59;98246.13;;;7.47;41.06
50394;BME280;36308;46.312;25.288;2024-01-30T11:40:27;98229.16;;;7.40;41.05
50394;BME280;36308;46.312;25.288;2024-01-30T11:42:53;98222.03;;;7.47;41.49
50394;BME280;36308;46.312;25.288;2024-01-30T11:45:19;98231.19;;;7.53;41.38
50394;BME280;36308;46.312;25.288;2024-01-30T11:48:04;98224.47;;;7.57;41.51
50394;BME280;36308;46.312;25.288;2024-01-30T11:50:30;98213.84;;;7.63;41.77
50394;BME280;36308;46.312;25.288;2024-01-30T11:52:56;98204.41;;;7.67;41.43
50394;BME280;36308;46.312;25.288;2024-01-30T11:55:23;98202.09;;;7.79;41.46
50394;BME280;36308;46.312;25.288;2024-01-30T11:57:48;98203.22;;;7.85;41.42
50394;BME280;36308;46.312;25.288;2024-01-30T12:00:15;98210.94;;;7.95;40.70
50394;BME280;36308;46.312;25.288;2024-01-30T12:02:41;98184.66;;;7.83;40.20
50394;BME280;36308;46.312;25.288;2024-01-30T12:05:07;98202.72;;;7.96;40.01
50394;BME280;36308;46.312;25.288;2024-01-30T12:07:33;98206.88;;;7.99;40.03
50394;BME280;36308;46.312;25.288;2024-01-30T12:09:59;98191.47;;;7.86;39.83
50394;BME280;36308;46.312;25.288;2024-01-30T12:12:26;98206.69;;;8.00;39.89
50394;BME280;36308;46.312;25.288;2024-01-30T12:14:51;98201.91;;;7.96;39.70
50394;BME280;36308;46.312;25.288;2024-01-30T12:17:33;98209.13;;;7.95;39.49
50394;BME280;36308;46.312;25.288;2024-01-30T12:20:09;98206.44;;;7.95;38.87
50394;BME280;36308;46.312;25.288;2024-01-30T12:25:07;98203.53;;;7.97;39.20
50394;BME280;36308;46.312;25.288;2024-01-30T12:27:33;98196.09;;;7.92;39.24
50394;BME280;36308;46.312;25.288;2024-01-30T12:29:59;98197.38;;;7.96;39.46
50394;BME280;36308;46.312;25.288;2024-01-30T12:32:24;98191.66;;;7.99;39.28
50394;BME280;36308;46.312;25.288;2024-01-30T12:34:50;98195.34;;;7.98;38.60
50394;BME280;36308;46.312;25.288;2024-01-30T12:37:16;98192.00;;;7.96;39.03
50394;BME280;36308;46.312;25.288;2024-01-30T12:39:48;98184.38;;;7.93;39.13
50394;BME280;36308;46.312;25.288;2024-01-30T12:42:14;98191.00;;;7.97;39.02
50394;BME280;36308;46.312;25.288;2024-01-30T12:44:39;98181.13;;;7.98;38.82
50394;BME280;36308;46.312;25.288;2024-01-30T12:47:05;98182.56;;;8.00;38.60
50394;BME280;36308;46.312;25.288;2024-01-30T12:49:31;98177.88;;;8.02;38.65
50394;BME280;36308;46.312;25.288;2024-01-30T12:51:58;98179.53;;;8.03;38.68
50394;BME280;36308;46.312;25.288;2024-01-30T12:54:24;98175.56;;;7.99;38.36
50394;BME280;36308;46.312;25.288;2024-01-30T12:56:49;98171.72;;;7.87;38.61
50394;BME280;36308;46.312;25.288;2024-01-30T12:59:15;98179.81;;;7.94;38.89